Briefing drone pour Saint-ferreol-d'auroure

Rechercher une autre localisation

Conditions de vol :


Nous sommes le : Mercredi 28 juillet 2021
Il est 00:29 UTC (02:29 LT)

Lever de soleil : 03:56 UTC (05:56 LT)
Coucher de soleil : 19:42 UTC (21:42 LT)

Météo

L'essentiel des conditions de vol

VIGILANCE MÉTÉO FRANCE - Haute-Loire (43)
Vigilance Jaune : Orages
CARTE TEMSI
CARTES DES FRONTS
METAR de LFMH
LFMH 280000Z AUTO VRB02KT 6000 RA FEW006/// SCT044/// BKN052/// ///CB 18/17 Q1017

Date d'émission: 28/07/2021
Heure d'émission: 00:00 UTC
Vent: Variable 2 KT (4 km/h)
Visibilité horizontale: 6000 m
Plafond :
- Peu de nuages à 600ft (183m)
- Nuages épars à 4400ft (1341m)
- Nuages morcelés à 5200ft (1585m)
Température: 18 °C
Point de rosée: 17 °C
Humidité: 94%
Pression (QNH): 1017 hPa
Conditions: Pluie
TAF de LFMH
LFMH 161901Z 1619/1712 CNL

Conditions prévues :

Heure d'émission : Bulletin éffectué le 16 à 19:00 UTC
Prévision : Valide du 16 a 19:00 UTC au 17 a 12:00 UTC
Nuages : à 0ft (0 m)
WEBCAM POUR SAINT-FERREOL-D'AUROURE

Réglementation

Voler en sécurité

CARTES AERONAUTIQUE 1/500.000
CARTES VAC (LFMH)
SUP AIP




Chargement des AIP...
NOTAM (SAINT-FERREOL-D'AUROURE + Terrain à proximité / FIR )




Chargement des NOTAMS...
CONTACT PREFECTURE 43


Avertissement : Les données mises à disposition sont indicatives. Oxygène Drone ne pourra être tenu responsable de dégâts causés aux biens et aux personnes.